createdAt,value
2023-04-10T00:01:21.492Z,84.42
2023-04-10T00:03:49.456Z,84.58
2023-04-10T00:06:17.445Z,84.64
2023-04-10T00:08:45.345Z,84.62
2023-04-10T00:11:13.684Z,84.68
2023-04-10T00:13:41.833Z,84.93
2023-04-10T00:16:09.910Z,84.79
2023-04-10T00:18:37.716Z,84.74
2023-04-10T00:21:06.319Z,84.70
2023-04-10T00:23:35.009Z,84.63
2023-04-10T00:26:03.417Z,84.46
2023-04-10T00:28:31.810Z,84.51
2023-04-10T00:30:59.822Z,84.70
2023-04-10T00:33:27.497Z,84.72
2023-04-10T00:35:55.590Z,84.95
2023-04-10T00:38:23.458Z,85.02
2023-04-10T00:40:51.651Z,84.95
2023-04-10T00:43:20.412Z,84.96
2023-04-10T00:45:49.974Z,84.86
2023-04-10T00:48:18.872Z,84.78
2023-04-10T00:50:47.554Z,84.75
2023-04-10T00:53:16.879Z,84.70
2023-04-10T00:55:46.094Z,84.85
2023-04-10T00:58:14.789Z,84.85
2023-04-10T01:00:45.937Z,84.91
2023-04-10T01:03:17.423Z,84.97
2023-04-10T01:05:57.344Z,84.96
2023-04-10T01:08:47.661Z,85.04
2023-04-10T01:11:30.945Z,84.94
2023-04-10T01:14:07.439Z,85.02
2023-04-10T01:16:46.620Z,85.06
2023-04-10T01:19:52.741Z,85.37
2023-04-10T01:22:25.428Z,85.05
2023-04-10T01:25:12.821Z,85.03
2023-04-10T01:27:54.446Z,85.14
2023-04-10T01:30:23.761Z,85.04
2023-04-10T01:32:56.036Z,85.12
2023-04-10T01:35:26.166Z,85.22
2023-04-10T01:37:55.091Z,85.29
2023-04-10T01:40:25.950Z,85.06
2023-04-10T01:42:57.207Z,85.16
2023-04-10T01:45:28.731Z,85.29
2023-04-10T01:47:56.864Z,85.21
2023-04-10T01:50:28.033Z,85.17
2023-04-10T01:52:57.940Z,85.04
2023-04-10T01:55:27.660Z,85.17
2023-04-10T01:57:56.565Z,85.09
2023-04-10T02:00:24.347Z,85.09
2023-04-10T02:02:52.301Z,85.06
2023-04-10T02:05:22.184Z,85.50
2023-04-10T02:08:02.270Z,85.68
2023-04-10T02:10:36.575Z,85.59
2023-04-10T02:13:11.658Z,85.65
2023-04-10T02:15:43.826Z,85.84
2023-04-10T02:18:15.992Z,85.91
2023-04-10T02:20:44.881Z,86.02
2023-04-10T02:23:14.508Z,86.22
2023-04-10T02:25:45.331Z,86.30
2023-04-10T02:28:13.124Z,86.40
2023-04-10T02:30:41.284Z,86.48
2023-04-10T02:33:09.055Z,86.49
2023-04-10T02:35:37.849Z,86.64
2023-04-10T02:38:06.024Z,86.69
2023-04-10T02:40:33.871Z,86.75
2023-04-10T02:43:02.330Z,86.78
2023-04-10T02:45:30.501Z,86.79
2023-04-10T02:47:58.314Z,86.80
2023-04-10T02:50:29.733Z,86.90
2023-04-10T02:52:57.480Z,86.94
2023-04-10T02:55:25.320Z,87.05
2023-04-10T02:57:53.742Z,87.08
2023-04-10T03:00:23.143Z,87.12
2023-04-10T03:02:51.568Z,87.12
2023-04-10T03:05:20.055Z,87.13
2023-04-10T03:07:47.766Z,87.20
2023-04-10T03:10:15.945Z,87.26
2023-04-10T03:12:43.699Z,87.29
2023-04-10T03:15:12.782Z,87.36
2023-04-10T03:17:41.166Z,87.45
2023-04-10T03:20:09.831Z,87.46
2023-04-10T03:22:37.570Z,87.47
2023-04-10T03:25:06.660Z,87.51
2023-04-10T03:27:35.110Z,87.55
2023-04-10T03:30:03.258Z,87.53
2023-04-10T03:32:31.363Z,87.57
2023-04-10T03:34:59.440Z,87.65
2023-04-10T03:37:27.875Z,87.56
2023-04-10T03:39:55.985Z,87.50
2023-04-10T03:42:24.676Z,87.57
2023-04-10T03:44:52.484Z,87.50
2023-04-10T03:47:20.316Z,87.43
2023-04-10T03:49:48.100Z,87.34
2023-04-10T03:52:16.088Z,87.37
2023-04-10T03:54:43.859Z,87.53
2023-04-10T03:57:12.138Z,87.52
2023-04-10T03:59:39.965Z,87.63
2023-04-10T04:02:08.298Z,87.64
2023-04-10T04:04:36.214Z,87.72
2023-04-10T04:07:04.051Z,87.56
2023-04-10T04:09:32.035Z,87.52
2023-04-10T04:11:59.852Z,87.46
2023-04-10T04:14:27.612Z,87.47
2023-04-10T04:16:55.609Z,87.68
2023-04-10T04:19:23.405Z,87.65
2023-04-10T04:21:51.349Z,87.47
2023-04-10T04:24:19.076Z,87.59
2023-04-10T04:26:47.590Z,87.79
2023-04-10T04:29:15.626Z,87.72
2023-04-10T04:31:43.600Z,87.74
2023-04-10T04:34:11.522Z,87.77
2023-04-10T04:36:39.780Z,87.96
2023-04-10T04:39:07.953Z,88.02
2023-04-10T04:41:36.115Z,88.07
2023-04-10T04:44:05.190Z,87.90
2023-04-10T04:46:33.140Z,87.73
2023-04-10T04:49:00.924Z,87.66
2023-04-10T04:51:31.683Z,87.73
2023-04-10T04:53:59.905Z,87.68
2023-04-10T04:56:28.080Z,87.62
2023-04-10T04:58:56.126Z,87.60
2023-04-10T05:01:24.063Z,87.81
2023-04-10T05:03:51.903Z,87.79
2023-04-10T05:06:20.481Z,87.63
2023-04-10T05:08:49.238Z,87.59
2023-04-10T05:11:17.773Z,87.68
2023-04-10T05:13:46.129Z,87.63
2023-04-10T05:16:14.027Z,87.54
2023-04-10T05:18:41.983Z,87.94
2023-04-10T05:21:09.779Z,88.16
2023-04-10T05:23:38.350Z,88.14
2023-04-10T05:26:06.962Z,88.20
2023-04-10T05:28:34.839Z,88.08
2023-04-10T05:31:02.726Z,88.12
2023-04-10T05:33:30.629Z,87.91
2023-04-10T05:35:58.640Z,87.92
2023-04-10T05:38:26.920Z,87.76
2023-04-10T05:40:55.646Z,87.74
2023-04-10T05:43:23.554Z,87.66
2023-04-10T05:45:51.294Z,87.62
2023-04-10T05:48:19.072Z,87.58
2023-04-10T05:50:46.930Z,87.56
2023-04-10T05:53:15.544Z,87.64
2023-04-10T05:55:43.896Z,87.87
2023-04-10T05:58:11.702Z,87.94
2023-04-10T06:00:39.399Z,88.09
2023-04-10T06:03:07.222Z,87.94
2023-04-10T06:05:35.500Z,87.81
2023-04-10T06:08:03.977Z,87.66
2023-04-10T06:10:32.873Z,87.56
2023-04-10T06:13:00.965Z,87.46
2023-04-10T06:15:29.520Z,87.40
2023-04-10T06:17:57.349Z,87.34
2023-04-10T06:20:25.476Z,87.24
2023-04-10T06:22:54.458Z,87.08
2023-04-10T06:25:22.999Z,86.90
2023-04-10T06:27:51.458Z,86.71
2023-04-10T06:30:19.244Z,86.53
2023-04-10T06:32:47.040Z,86.32
2023-04-10T06:35:14.794Z,86.11
2023-04-10T06:37:43.704Z,85.78
2023-04-10T06:40:14.158Z,85.50
2023-04-10T06:42:42.428Z,85.45
2023-04-10T06:45:10.561Z,85.42
2023-04-10T06:47:38.524Z,85.41
2023-04-10T06:50:06.687Z,85.33
2023-04-10T06:52:34.498Z,85.25
2023-04-10T06:55:03.298Z,85.21
2023-04-10T06:57:31.190Z,85.13
2023-04-10T06:59:59.170Z,85.14
2023-04-10T07:02:27.182Z,85.14
2023-04-10T07:04:57.036Z,85.09
2023-04-10T07:07:25.765Z,84.99
2023-04-10T07:09:54.159Z,84.91
2023-04-10T07:12:23.043Z,84.94
2023-04-10T07:14:51.056Z,84.92
2023-04-10T07:17:18.850Z,84.69
2023-04-10T07:19:46.792Z,84.38
2023-04-10T07:22:15.895Z,84.12
2023-04-10T07:24:44.452Z,83.86
2023-04-10T07:27:13.090Z,83.70
2023-04-10T07:29:41.261Z,83.42
2023-04-10T07:32:12.590Z,83.20
2023-04-10T07:34:42.242Z,83.15
2023-04-10T07:37:10.558Z,82.88
2023-04-10T07:39:39.009Z,82.60
2023-04-10T07:42:06.895Z,82.31
2023-04-10T07:44:34.651Z,81.95
2023-04-10T07:47:03.718Z,81.59
2023-04-10T07:49:31.722Z,80.96
2023-04-10T07:51:59.964Z,80.69
2023-04-10T07:54:31.470Z,80.41
2023-04-10T07:57:02.701Z,79.57
2023-04-10T07:59:30.550Z,79.15
2023-04-10T08:01:58.448Z,78.78
2023-04-10T08:04:26.843Z,78.33
2023-04-10T08:06:55.289Z,78.16
2023-04-10T08:09:23.655Z,78.31
2023-04-10T08:11:51.399Z,77.84
2023-04-10T08:14:19.409Z,77.41
2023-04-10T08:16:47.218Z,77.09
2023-04-10T08:19:15.150Z,77.20
2023-04-10T08:21:43.529Z,76.68
2023-04-10T08:24:11.857Z,76.78
2023-04-10T08:26:39.686Z,76.01
2023-04-10T08:29:14.724Z,75.94
2023-04-10T08:31:42.901Z,76.08
2023-04-10T08:34:11.173Z,75.68
2023-04-10T08:36:39.427Z,75.19
2023-04-10T08:39:07.477Z,74.98
2023-04-10T08:41:41.532Z,74.76
2023-04-10T08:44:09.692Z,73.87
2023-04-10T08:46:43.913Z,73.30
2023-04-10T08:49:18.913Z,73.17
2023-04-10T08:51:54.391Z,72.91
2023-04-10T08:54:28.333Z,72.34
2023-04-10T08:56:58.598Z,72.17
2023-04-10T08:59:30.288Z,71.49
2023-04-10T09:02:03.399Z,71.44
2023-04-10T09:04:32.022Z,71.74
2023-04-10T09:07:00.753Z,70.59
2023-04-10T09:09:32.491Z,70.81
2023-04-10T09:12:01.919Z,71.06
2023-04-10T09:14:35.364Z,70.97
2023-04-10T09:17:13.472Z,71.07
2023-04-10T09:19:41.740Z,71.43
2023-04-10T09:22:09.971Z,71.14
2023-04-10T09:24:43.861Z,71.40
2023-04-10T09:27:27.597Z,71.46
2023-04-10T09:29:55.318Z,71.42
2023-04-10T09:32:42.885Z,71.22
2023-04-10T09:35:13.619Z,71.16
2023-04-10T09:37:45.206Z,70.78
2023-04-10T09:40:24.789Z,70.15
2023-04-10T09:42:56.139Z,68.00
2023-04-10T09:45:24.602Z,68.55
2023-04-10T09:48:02.450Z,68.55
2023-04-10T09:50:41.246Z,68.53
2023-04-10T09:53:12.085Z,68.03
2023-04-10T09:55:42.422Z,68.20
2023-04-10T09:58:14.637Z,68.00
2023-04-10T10:00:48.201Z,68.21
2023-04-10T10:03:23.448Z,68.37
2023-04-10T10:05:53.420Z,68.73
2023-04-10T10:08:22.205Z,68.66
2023-04-10T10:10:53.974Z,68.60
2023-04-10T10:13:29.489Z,68.75
2023-04-10T10:16:03.120Z,68.74
2023-04-10T10:18:47.247Z,68.80
2023-04-10T10:21:17.048Z,68.02
2023-04-10T10:23:46.291Z,66.83
2023-04-10T10:26:14.771Z,68.05
2023-04-10T10:28:43.960Z,68.24
2023-04-10T10:31:12.657Z,67.99
2023-04-10T10:33:41.505Z,67.24
2023-04-10T10:36:11.875Z,66.94
2023-04-10T10:38:45.336Z,65.19
2023-04-10T10:41:16.930Z,65.65
2023-04-10T10:43:52.889Z,65.87
2023-04-10T10:46:29.596Z,65.62
2023-04-10T10:49:00.363Z,64.08
2023-04-10T10:51:52.337Z,62.64
2023-04-10T10:54:34.769Z,62.40
2023-04-10T10:57:05.519Z,62.55
2023-04-10T10:59:59.853Z,64.08
2023-04-10T11:02:28.225Z,63.74
2023-04-10T11:04:56.241Z,63.32
2023-04-10T11:07:59.210Z,62.52
2023-04-10T11:11:05.769Z,61.50
2023-04-10T11:14:01.473Z,58.82
2023-04-10T11:16:41.069Z,59.70
2023-04-10T11:19:16.214Z,60.56
2023-04-10T11:22:09.211Z,60.99
2023-04-10T11:25:02.007Z,61.05
2023-04-10T11:27:52.889Z,60.99
2023-04-10T11:30:32.511Z,61.82
2023-04-10T11:33:01.911Z,63.05
2023-04-10T11:35:31.929Z,63.78
2023-04-10T11:38:12.580Z,64.36
2023-04-10T11:40:57.276Z,64.07
2023-04-10T11:43:25.108Z,64.99
2023-04-10T11:46:08.828Z,65.34
2023-04-10T11:48:37.834Z,65.86
2023-04-10T11:51:10.495Z,66.23
2023-04-10T11:53:39.422Z,66.36
2023-04-10T11:56:16.532Z,66.23
2023-04-10T11:58:45.438Z,66.47
2023-04-10T12:01:14.786Z,66.43
2023-04-10T12:03:44.363Z,66.47
2023-04-10T12:06:14.565Z,66.31
2023-04-10T12:08:46.202Z,65.16
2023-04-10T12:11:18.282Z,62.38
2023-04-10T12:13:46.585Z,59.21
2023-04-10T12:16:14.976Z,54.94
2023-04-10T12:18:43.330Z,56.24
2023-04-10T12:21:11.905Z,54.77
2023-04-10T12:23:40.691Z,52.61
2023-04-10T12:26:16.359Z,51.50
2023-04-10T12:29:06.344Z,50.40
2023-04-10T12:31:37.023Z,53.68
2023-04-10T12:34:07.080Z,53.72
2023-04-10T12:36:37.598Z,51.99
2023-04-10T12:39:21.772Z,52.49
2023-04-10T12:41:49.740Z,52.22
2023-04-10T12:44:19.350Z,53.53
2023-04-10T12:46:47.669Z,54.67
2023-04-10T12:49:17.303Z,53.75
2023-04-10T12:51:52.487Z,54.38
2023-04-10T12:54:32.225Z,53.72
2023-04-10T12:57:02.061Z,51.36
2023-04-10T12:59:31.550Z,51.39
2023-04-10T13:01:59.657Z,51.68
2023-04-10T13:04:31.742Z,51.34
2023-04-10T13:06:59.569Z,51.21
2023-04-10T13:09:27.773Z,51.41
2023-04-10T13:11:57.688Z,51.88
2023-04-10T13:14:26.230Z,51.51
2023-04-10T13:16:57.095Z,51.19
2023-04-10T13:19:24.866Z,51.70
2023-04-10T13:21:53.238Z,50.87
2023-04-10T13:24:22.109Z,51.92
2023-04-10T13:26:50.517Z,52.05
2023-04-10T13:29:18.293Z,52.00
2023-04-10T13:31:46.389Z,52.26
2023-04-10T13:34:14.678Z,51.78
2023-04-10T13:36:43.101Z,51.17
2023-04-10T13:39:11.411Z,51.07
2023-04-10T13:41:39.146Z,51.28
2023-04-10T13:44:06.857Z,50.71
2023-04-10T13:46:35.269Z,51.15
2023-04-10T13:49:03.174Z,52.54
2023-04-10T13:51:31.024Z,51.94
2023-04-10T13:53:59.597Z,51.26
2023-04-10T13:56:29.961Z,51.00
2023-04-10T13:58:57.707Z,50.75
2023-04-10T14:01:26.484Z,49.06
2023-04-10T14:03:54.630Z,50.45
2023-04-10T14:06:22.488Z,49.66
2023-04-10T14:08:50.730Z,49.81
2023-04-10T14:11:18.447Z,49.88
2023-04-10T14:13:46.258Z,49.76
2023-04-10T14:16:14.990Z,49.47
2023-04-10T14:18:42.729Z,49.01
2023-04-10T14:21:10.753Z,53.97
2023-04-10T14:23:39.005Z,57.95
2023-04-10T14:26:06.821Z,61.14
2023-04-10T14:28:35.108Z,62.37
2023-04-10T14:31:04.803Z,62.79
2023-04-10T14:33:32.545Z,63.82
2023-04-10T14:36:00.333Z,64.63
2023-04-10T14:38:28.773Z,63.74
2023-04-10T14:40:56.467Z,63.72
2023-04-10T14:43:24.177Z,63.42
2023-04-10T14:45:52.377Z,63.32
2023-04-10T14:48:21.376Z,63.11
2023-04-10T14:50:49.703Z,63.47
2023-04-10T14:53:18.090Z,64.41
2023-04-10T14:55:46.074Z,63.78
2023-04-10T14:58:14.588Z,63.92
2023-04-10T15:00:43.801Z,63.85
2023-04-10T15:03:11.535Z,63.35
2023-04-10T15:05:39.392Z,62.72
2023-04-10T15:08:07.963Z,62.81
2023-04-10T15:10:36.266Z,62.60
2023-04-10T15:13:04.263Z,60.55
2023-04-10T15:15:32.046Z,61.70
2023-04-10T15:18:00.095Z,62.32
2023-04-10T15:20:27.910Z,61.98
2023-04-10T15:22:56.180Z,62.30
2023-04-10T15:25:24.463Z,62.60
2023-04-10T15:27:55.382Z,61.92
2023-04-10T15:30:23.285Z,62.73
2023-04-10T15:32:51.073Z,62.36
2023-04-10T15:35:19.237Z,62.01
2023-04-10T15:37:47.615Z,62.29
2023-04-10T15:40:16.126Z,61.97
2023-04-10T15:42:43.879Z,62.65
2023-04-10T15:45:12.057Z,64.11
2023-04-10T15:47:39.961Z,65.75
2023-04-10T15:50:10.204Z,67.55
2023-04-10T15:52:39.065Z,69.49
2023-04-10T15:55:07.799Z,71.26
2023-04-10T15:57:36.218Z,72.00
2023-04-10T16:00:05.406Z,72.11
2023-04-10T16:02:33.328Z,72.86
2023-04-10T16:05:02.019Z,73.07
2023-04-10T16:07:30.798Z,73.32
2023-04-10T16:09:58.597Z,73.58
2023-04-10T16:12:26.311Z,73.63
2023-04-10T16:14:54.271Z,73.59
2023-04-10T16:17:22.097Z,73.77
2023-04-10T16:19:50.516Z,73.93
2023-04-10T16:22:18.810Z,73.90
2023-04-10T16:24:46.592Z,74.08
2023-04-10T16:27:14.364Z,74.33
2023-04-10T16:29:42.145Z,74.49
2023-04-10T16:32:10.568Z,74.97
2023-04-10T16:34:38.719Z,74.97
2023-04-10T16:37:07.760Z,75.48
2023-04-10T16:39:35.663Z,75.72
2023-04-10T16:42:04.917Z,75.54
2023-04-10T16:44:32.901Z,75.63
2023-04-10T16:47:01.983Z,75.81
2023-04-10T16:49:29.963Z,75.85
2023-04-10T16:51:57.713Z,76.30
2023-04-10T16:54:25.635Z,76.31
2023-04-10T16:56:53.602Z,76.90
2023-04-10T16:59:21.933Z,77.50
2023-04-10T17:01:51.441Z,77.91
2023-04-10T17:04:20.219Z,77.47
2023-04-10T17:06:48.246Z,77.36
2023-04-10T17:09:16.130Z,78.13
2023-04-10T17:11:47.176Z,78.28
2023-04-10T17:14:16.171Z,78.45
2023-04-10T17:16:45.879Z,78.57
2023-04-10T17:19:18.509Z,78.83
2023-04-10T17:21:46.321Z,78.98
2023-04-10T17:24:14.189Z,79.12
2023-04-10T17:26:42.049Z,78.88
2023-04-10T17:29:10.351Z,79.16
2023-04-10T17:31:38.710Z,79.15
2023-04-10T17:34:06.754Z,79.76
2023-04-10T17:36:34.545Z,79.91
2023-04-10T17:39:02.342Z,80.32
2023-04-10T17:41:30.259Z,80.79
2023-04-10T17:43:58.769Z,80.48
2023-04-10T17:46:27.162Z,80.26
2023-04-10T17:48:59.982Z,80.69
2023-04-10T17:51:28.339Z,81.08
2023-04-10T17:53:56.093Z,81.38
2023-04-10T17:56:24.508Z,81.74
2023-04-10T17:58:54.469Z,81.77
2023-04-10T18:01:30.314Z,82.14
2023-04-10T18:03:59.302Z,82.22
2023-04-10T18:06:27.832Z,82.38
2023-04-10T18:08:57.389Z,82.46
2023-04-10T18:11:25.569Z,82.43
2023-04-10T18:13:53.408Z,82.60
2023-04-10T18:16:21.187Z,82.57
2023-04-10T18:18:49.352Z,82.57
2023-04-10T18:21:21.072Z,82.50
2023-04-10T18:23:48.827Z,82.44
2023-04-10T18:26:16.590Z,82.33
2023-04-10T18:28:46.380Z,82.35
2023-04-10T18:31:16.032Z,82.33
2023-04-10T18:33:43.849Z,81.88
2023-04-10T18:36:14.088Z,81.73
2023-04-10T18:38:43.897Z,81.73
2023-04-10T18:41:11.753Z,81.86
2023-04-10T18:43:40.066Z,82.16
2023-04-10T18:46:09.001Z,82.60
2023-04-10T18:48:43.151Z,82.67
2023-04-10T18:51:11.813Z,82.52
2023-04-10T18:53:41.019Z,82.60
2023-04-10T18:56:09.264Z,82.93
2023-04-10T18:58:37.139Z,83.24
2023-04-10T19:01:05.048Z,83.25
2023-04-10T19:03:33.267Z,83.29
2023-04-10T19:06:01.414Z,83.39
2023-04-10T19:08:30.229Z,83.56
2023-04-10T19:10:58.066Z,83.62
2023-04-10T19:13:25.898Z,83.60
2023-04-10T19:15:53.689Z,83.64
2023-04-10T19:18:21.488Z,83.61
2023-04-10T19:20:52.921Z,83.71
2023-04-10T19:23:22.106Z,83.91
2023-04-10T19:25:55.177Z,83.99
2023-04-10T19:28:29.526Z,84.22
2023-04-10T19:31:00.907Z,84.25
2023-04-10T19:33:32.327Z,84.18
2023-04-10T19:36:00.903Z,84.29
2023-04-10T19:38:29.573Z,84.31
2023-04-10T19:40:57.576Z,84.14
2023-04-10T19:43:25.626Z,84.22
2023-04-10T19:45:56.411Z,84.41
2023-04-10T19:48:24.631Z,84.48
2023-04-10T19:50:53.037Z,84.47
2023-04-10T19:53:21.034Z,84.45
2023-04-10T19:55:48.844Z,84.47
2023-04-10T19:58:30.532Z,84.60
2023-04-10T20:01:07.040Z,84.77
2023-04-10T20:03:37.007Z,84.58
2023-04-10T20:06:07.612Z,84.75
2023-04-10T20:08:35.956Z,84.75
2023-04-10T20:11:06.370Z,85.09
2023-04-10T20:13:35.018Z,85.10
2023-04-10T20:16:03.500Z,85.00
2023-04-10T20:18:32.340Z,85.07
2023-04-10T20:21:00.152Z,85.16
2023-04-10T20:23:27.942Z,85.20
2023-04-10T20:25:55.935Z,85.12
2023-04-10T20:28:23.762Z,85.06
2023-04-10T20:30:52.146Z,85.03
2023-04-10T20:33:20.391Z,85.05
2023-04-10T20:35:48.153Z,84.86
2023-04-10T20:38:18.309Z,84.83
2023-04-10T20:40:46.098Z,84.85
2023-04-10T20:43:14.275Z,84.84
2023-04-10T20:45:42.383Z,84.93
2023-04-10T20:48:11.249Z,84.99
2023-04-10T20:50:46.780Z,85.01
2023-04-10T20:53:14.616Z,84.94
2023-04-10T20:55:42.546Z,85.00
2023-04-10T20:58:10.381Z,85.13
2023-04-10T21:00:41.861Z,85.13
2023-04-10T21:03:09.904Z,85.29
2023-04-10T21:05:41.843Z,85.39
2023-04-10T21:08:11.467Z,85.45
2023-04-10T21:10:48.625Z,85.43
2023-04-10T21:13:16.630Z,85.48
2023-04-10T21:15:44.876Z,85.44
2023-04-10T21:18:12.661Z,85.32
2023-04-10T21:20:40.418Z,85.26
2023-04-10T21:23:08.188Z,85.13
2023-04-10T21:25:36.588Z,84.93
2023-04-10T21:28:04.777Z,84.98
2023-04-10T21:30:32.502Z,84.94
2023-04-10T21:33:00.347Z,84.88
2023-04-10T21:35:28.297Z,84.90
2023-04-10T21:38:01.383Z,84.90
2023-04-10T21:40:34.770Z,84.79
2023-04-10T21:43:23.325Z,84.82
2023-04-10T21:45:51.621Z,84.85
2023-04-10T21:48:22.498Z,84.83
2023-04-10T21:50:51.410Z,84.83
2023-04-10T21:53:19.580Z,84.80
2023-04-10T21:55:47.857Z,84.79
2023-04-10T21:58:16.427Z,84.84
2023-04-10T22:00:47.433Z,84.97
2023-04-10T22:03:16.354Z,85.12
2023-04-10T22:05:44.368Z,85.17
2023-04-10T22:08:12.170Z,85.22
2023-04-10T22:10:39.912Z,85.23
2023-04-10T22:13:16.975Z,85.20
2023-04-10T22:15:54.381Z,85.16
2023-04-10T22:18:22.421Z,85.23
2023-04-10T22:20:50.296Z,85.19
2023-04-10T22:23:18.184Z,85.14
2023-04-10T22:25:46.021Z,85.17
2023-04-10T22:28:13.930Z,85.20
2023-04-10T22:30:41.825Z,85.24
2023-04-10T22:33:10.538Z,85.31
2023-04-10T22:35:38.588Z,85.34
2023-04-10T22:38:07.833Z,85.35
2023-04-10T22:40:35.804Z,85.39
2023-04-10T22:43:03.499Z,85.34
2023-04-10T22:45:31.378Z,85.42
2023-04-10T22:47:59.469Z,85.43
2023-04-10T22:50:27.249Z,85.51
2023-04-10T22:52:55.463Z,85.56
2023-04-10T22:55:23.183Z,85.57
2023-04-10T22:57:51.283Z,85.62
2023-04-10T23:00:19.206Z,85.69
2023-04-10T23:02:47.252Z,85.76
2023-04-10T23:05:15.873Z,85.79
2023-04-10T23:07:43.634Z,85.91
2023-04-10T23:10:11.650Z,85.97
2023-04-10T23:12:39.397Z,85.99
2023-04-10T23:15:08.644Z,86.06
2023-04-10T23:17:36.548Z,86.13
2023-04-10T23:20:04.671Z,86.22
2023-04-10T23:22:32.451Z,86.30
2023-04-10T23:25:00.334Z,86.33
2023-04-10T23:27:28.084Z,86.38
2023-04-10T23:29:55.784Z,86.46
2023-04-10T23:32:23.888Z,86.45
2023-04-10T23:34:51.629Z,86.41
2023-04-10T23:37:19.386Z,86.32
2023-04-10T23:39:50.635Z,86.25
2023-04-10T23:42:18.379Z,86.12
2023-04-10T23:44:46.106Z,86.01
2023-04-10T23:47:13.876Z,85.97
2023-04-10T23:49:41.623Z,85.95
2023-04-10T23:52:10.334Z,85.93
2023-04-10T23:54:38.208Z,85.90
2023-04-10T23:57:06.102Z,85.83
2023-04-10T23:59:33.844Z,85.76
